Airfield :
LOGIN :

Register | Disclaimer

   EN    FR    IT 

 










Legend :    VFR   Marginal VFR   IFR   Intensive IFR   Very Intensive IFR
Visi :
Ceiling :
>= 8 km
>= 3000ft
5 to 8 km
1000 to 3000 ft
1500m to 5 km
500 to 1000 ft
800 to 1500m
200 to 500 ft
< 800m
< 200 ft
Symbols :   Thunderstorms  Fog  Heavy snow  Heavy precipitations  Wind > 20 kt
SIGMETs :     Misc.  Thunderstorms  Icing  Turbulence  Mountain Waves  Volcanic Ashes






- Airport Elevation : 56 ft
- IATA code : ODE


EKOD - Odense

CURRENT METAR :
  • 271050Z 23006KT 190V260 9999 FEW006 BKN016 BKN042 03/02 Q0998 R06/190095

EXPIRED METARs :
  • 271020Z 23007KT 9999 FEW006 SCT010 BKN014 02/02 Q0998 R06/190095
  • 270950Z 21005KT 180V250 9999 SCT006 BKN008 OVC010 02/01 Q0998 R06/190095
  • 270920Z 19005KT 9999 FEW010 BKN013 OVC018 02/01 Q0998 R06/710295
  • 270850Z 18004KT 9999 SCT012 OVC015 01/01 Q0998 R06/710295
  • 270820Z 17004KT 140V200 9999 SCT011 BKN014 BKN029 01/00 Q0998 R06/710295

TAF TAF EKOD
Valid from the 27 at 09:00 until the 27 at 16:00 UTC


270901Z 2709/2716 20008KT 9999 BKN025
TEMPO 2709/2711 2000 -SHRASN BKN005 SCT020CB
TEMPO 2711/2716 BKN012 SCT020CB



MET'MAP, your aeronautical weather chart ! - Copyright ORBIFLY December 2007 - Disclaimer

ORBIFLY MET'MAP TEAM :

Programming & Development : Alexandra Zaïnal
Concept & original design : Baudouin d'Aumeries
Assistance for programming : Marc-Olivier Méhu
Technical & hardware support : Manuel Goepfert

Contact : metmap@orbifly.com




SOURCES & CREDITS :

   NOAA